VA39 weather

Fort Lee AHP 3(Qrtmst Cen) Heliport
Fort Lee, Virginia, United States

Public forecast

Using degrees Fahrenheit for public forecast. Weather courtesy of forecast.io.

METAR (pilot weather report)

Closest report is Dinwiddie County Airport, 9.2 nm (17.1 km) WSW. Retrieved 2019/05/21 07:35 UTC (22 minutes ago):

KPTB 210735Z AUTO 00000KT 3SM BR BKN085 17/16 A2991 RMK AO2 T01660157

TAF (pilot weather forecast)

Closest forecast is Richmond International Airport, 15.3 nm (28.4 km) N. Retrieved 2019/05/21 06:30 UTC (1 hour ago):

TAF KRIC 210529Z 2106/2206 32005KT P6SM SKC FM211200 01011KT P6SM SKC FM211600 34008KT P6SM SKC FM212300 04005KT P6SM SKC